createdAt,value
2022-08-16T00:01:29.043Z,51.42
2022-08-16T00:04:05.242Z,51.40
2022-08-16T00:06:36.563Z,51.21
2022-08-16T00:09:07.881Z,51.01
2022-08-16T00:11:41.573Z,50.96
2022-08-16T00:14:14.766Z,50.88
2022-08-16T00:17:06.039Z,50.94
2022-08-16T00:19:41.530Z,50.94
2022-08-16T00:22:15.486Z,50.52
2022-08-16T00:24:46.742Z,50.54
2022-08-16T00:27:17.370Z,50.55
2022-08-16T00:29:46.519Z,50.47
2022-08-16T00:32:18.287Z,50.57
2022-08-16T00:34:52.628Z,50.65
2022-08-16T00:37:56.587Z,50.63
2022-08-16T00:40:33.508Z,50.57
2022-08-16T00:43:05.319Z,50.51
2022-08-16T00:45:58.016Z,50.73
2022-08-16T00:48:31.884Z,50.54
2022-08-16T00:51:16.206Z,50.57
2022-08-16T00:53:47.176Z,50.76
2022-08-16T00:56:56.322Z,50.66
2022-08-16T00:59:09.890Z,50.63
2022-08-16T01:01:39.237Z,50.54
2022-08-16T01:04:25.743Z,50.54
2022-08-16T01:07:02.036Z,50.42
2022-08-16T01:09:38.058Z,50.33
2022-08-16T01:12:21.829Z,50.65
2022-08-16T01:15:00.604Z,50.44
2022-08-16T01:17:36.910Z,50.35
2022-08-16T01:20:24.470Z,50.40
2022-08-16T01:23:08.484Z,50.35
2022-08-16T01:25:44.174Z,50.65
2022-08-16T01:28:19.807Z,50.71
2022-08-16T01:30:54.428Z,50.61
2022-08-16T01:33:23.550Z,50.58
2022-08-16T01:35:56.259Z,50.42
2022-08-16T01:38:28.858Z,50.60
2022-08-16T01:41:01.886Z,50.73
2022-08-16T01:43:32.952Z,50.62
2022-08-16T01:46:29.268Z,50.69
2022-08-16T01:48:57.436Z,50.62
2022-08-16T01:51:28.301Z,50.55
2022-08-16T01:53:57.439Z,50.67
2022-08-16T01:56:29.106Z,50.79
2022-08-16T01:58:59.710Z,50.85
2022-08-16T02:01:29.770Z,50.71
2022-08-16T02:04:10.266Z,50.76
2022-08-16T02:06:46.667Z,50.62
2022-08-16T02:09:17.857Z,50.77
2022-08-16T02:11:53.508Z,50.79
2022-08-16T02:14:26.589Z,50.75
2022-08-16T02:16:56.641Z,50.84
2022-08-16T02:19:59.759Z,50.69
2022-08-16T02:22:46.727Z,50.82
2022-08-16T02:25:14.622Z,50.69
2022-08-16T02:27:45.242Z,51.21
2022-08-16T02:30:37.014Z,50.85
2022-08-16T02:33:15.420Z,51.02
2022-08-16T02:35:53.736Z,50.98
2022-08-16T02:38:24.095Z,50.88
2022-08-16T02:40:54.364Z,50.68
2022-08-16T02:43:26.670Z,50.87
2022-08-16T02:45:56.337Z,51.08
2022-08-16T02:48:28.329Z,51.02
2022-08-16T02:51:10.486Z,51.00
2022-08-16T02:53:43.691Z,51.27
2022-08-16T02:56:15.064Z,51.28
2022-08-16T02:58:46.234Z,51.41
2022-08-16T03:01:24.955Z,51.22
2022-08-16T03:04:29.143Z,51.30
2022-08-16T03:06:56.150Z,51.10
2022-08-16T03:09:29.215Z,51.42
2022-08-16T03:12:02.470Z,51.31
2022-08-16T03:14:33.889Z,51.56
2022-08-16T03:17:02.442Z,51.58
2022-08-16T03:19:46.995Z,51.44
2022-08-16T03:22:28.012Z,51.83
2022-08-16T03:25:00.844Z,51.80
2022-08-16T03:27:32.358Z,51.97
2022-08-16T03:30:15.291Z,52.00
2022-08-16T03:32:47.338Z,51.78
2022-08-16T03:35:17.940Z,52.24
2022-08-16T03:38:02.026Z,52.15
2022-08-16T03:40:34.321Z,52.15
2022-08-16T03:43:19.709Z,52.46
2022-08-16T03:45:53.807Z,52.42
2022-08-16T03:48:37.413Z,52.24
2022-08-16T03:51:12.362Z,52.42
2022-08-16T03:53:42.168Z,52.23
2022-08-16T03:56:20.901Z,52.64
2022-08-16T03:58:51.137Z,52.53
2022-08-16T04:01:23.695Z,52.92
2022-08-16T04:03:57.996Z,52.92
2022-08-16T04:06:28.085Z,52.64
2022-08-16T04:08:56.977Z,53.08
2022-08-16T04:11:26.013Z,53.18
2022-08-16T04:14:00.193Z,53.05
2022-08-16T04:16:38.723Z,52.99
2022-08-16T04:19:07.427Z,53.20
2022-08-16T04:21:47.387Z,53.36
2022-08-16T04:24:16.811Z,53.47
2022-08-16T04:26:46.008Z,53.25
2022-08-16T04:29:23.559Z,53.34
2022-08-16T04:31:58.012Z,53.38
2022-08-16T04:34:30.922Z,53.65
2022-08-16T04:37:02.282Z,53.66
2022-08-16T04:39:36.731Z,53.56
2022-08-16T04:42:15.305Z,54.10
2022-08-16T04:44:54.480Z,53.96
2022-08-16T04:47:32.851Z,53.79
2022-08-16T04:50:07.871Z,53.41
2022-08-16T04:52:36.981Z,53.53
2022-08-16T04:55:15.309Z,53.48
2022-08-16T04:57:44.953Z,53.17
2022-08-16T05:00:31.932Z,53.33
2022-08-16T05:03:08.263Z,53.06
2022-08-16T05:05:44.941Z,53.19
2022-08-16T05:08:29.617Z,53.08
2022-08-16T05:11:03.346Z,53.28
2022-08-16T05:13:40.614Z,53.36
2022-08-16T05:16:20.000Z,53.58
2022-08-16T05:18:56.498Z,53.55
2022-08-16T05:21:26.873Z,53.50
2022-08-16T05:24:00.091Z,53.44
2022-08-16T05:26:32.597Z,53.45
2022-08-16T05:29:04.309Z,53.62
2022-08-16T05:31:35.094Z,53.47
2022-08-16T05:34:19.356Z,53.38
2022-08-16T05:36:51.255Z,53.40
2022-08-16T05:39:22.283Z,53.50
2022-08-16T05:41:52.027Z,53.49
2022-08-16T05:44:23.298Z,53.80
2022-08-16T05:46:54.935Z,53.89
2022-08-16T05:49:36.970Z,53.99
2022-08-16T05:52:10.842Z,53.58
2022-08-16T05:54:45.991Z,53.49
2022-08-16T05:57:17.197Z,53.74
2022-08-16T05:59:50.424Z,53.90
2022-08-16T06:02:33.375Z,54.12
2022-08-16T06:05:03.782Z,54.09
2022-08-16T06:07:32.717Z,53.83
2022-08-16T06:10:02.323Z,53.92
2022-08-16T06:12:32.067Z,54.02
2022-08-16T06:15:04.345Z,54.04
2022-08-16T06:17:43.834Z,53.63
2022-08-16T06:20:18.501Z,53.68
2022-08-16T06:22:58.812Z,53.65
2022-08-16T06:25:36.562Z,53.51
2022-08-16T06:28:17.010Z,53.83
2022-08-16T06:30:59.313Z,53.47
2022-08-16T06:33:29.952Z,53.55
2022-08-16T06:36:13.967Z,53.63
2022-08-16T06:38:55.283Z,53.47
2022-08-16T06:41:27.240Z,53.40
2022-08-16T06:43:57.257Z,53.34
2022-08-16T06:46:31.649Z,53.21
2022-08-16T06:49:01.581Z,53.33
2022-08-16T06:51:48.066Z,53.36
2022-08-16T06:54:18.975Z,53.21
2022-08-16T06:56:48.069Z,53.22
2022-08-16T06:59:25.963Z,52.96
2022-08-16T07:01:58.054Z,53.05
2022-08-16T07:04:31.747Z,53.07
2022-08-16T07:07:05.793Z,52.75
2022-08-16T07:09:34.585Z,52.77
2022-08-16T07:12:05.450Z,52.85
2022-08-16T07:14:35.442Z,52.77
2022-08-16T07:17:08.380Z,52.44
2022-08-16T07:20:03.404Z,52.31
2022-08-16T07:22:37.227Z,51.93
2022-08-16T07:25:10.105Z,51.99
2022-08-16T07:27:41.472Z,52.04
2022-08-16T07:30:39.016Z,51.97
2022-08-16T07:33:04.797Z,51.86
2022-08-16T07:35:36.131Z,51.57
2022-08-16T07:38:07.645Z,51.05
2022-08-16T07:41:00.554Z,50.67
2022-08-16T07:43:29.007Z,50.85
2022-08-16T07:46:01.414Z,50.50
2022-08-16T07:48:30.592Z,50.05
2022-08-16T07:51:00.997Z,49.62
2022-08-16T07:53:35.359Z,49.16
2022-08-16T07:56:12.637Z,48.59
2022-08-16T07:58:43.324Z,48.19
2022-08-16T08:01:14.994Z,47.72
2022-08-16T08:03:48.738Z,47.78
2022-08-16T08:06:19.314Z,47.40
2022-08-16T08:08:52.583Z,47.12
2022-08-16T08:11:28.360Z,46.82
2022-08-16T08:14:03.157Z,46.70
2022-08-16T08:16:33.045Z,46.71
2022-08-16T08:19:03.203Z,46.19
2022-08-16T08:21:58.871Z,46.37
2022-08-16T08:24:32.247Z,46.48
2022-08-16T08:27:04.047Z,46.36
2022-08-16T08:29:37.518Z,46.24
2022-08-16T08:32:51.222Z,46.17
2022-08-16T08:35:03.256Z,46.17
2022-08-16T08:37:53.897Z,46.30
2022-08-16T08:40:24.391Z,46.05
2022-08-16T08:42:57.712Z,45.89
2022-08-16T08:45:47.042Z,45.32
2022-08-16T08:48:34.142Z,45.29
2022-08-16T08:51:05.057Z,45.40
2022-08-16T08:53:34.306Z,45.52
2022-08-16T08:56:22.631Z,45.32
2022-08-16T08:58:58.948Z,45.36
2022-08-16T09:01:36.420Z,45.23
2022-08-16T09:04:06.718Z,45.21
2022-08-16T09:06:36.109Z,45.11
2022-08-16T09:09:17.044Z,44.66
2022-08-16T09:11:53.832Z,44.55
2022-08-16T09:14:35.155Z,44.49
2022-08-16T09:17:11.694Z,44.29
2022-08-16T09:19:47.186Z,43.56
2022-08-16T09:22:19.945Z,43.45
2022-08-16T09:24:53.622Z,43.43
2022-08-16T09:27:26.523Z,43.44
2022-08-16T09:30:00.327Z,43.36
2022-08-16T09:32:32.201Z,43.40
2022-08-16T09:35:01.701Z,43.48
2022-08-16T09:37:36.883Z,43.22
2022-08-16T09:40:33.094Z,42.77
2022-08-16T09:42:59.330Z,42.43
2022-08-16T09:45:29.224Z,42.36
2022-08-16T09:47:58.960Z,42.66
2022-08-16T09:50:37.066Z,42.71
2022-08-16T09:53:15.387Z,42.55
2022-08-16T09:55:49.583Z,42.49
2022-08-16T09:58:37.859Z,42.75
2022-08-16T10:01:11.041Z,42.60
2022-08-16T10:04:01.732Z,42.38
2022-08-16T10:06:33.407Z,41.84
2022-08-16T10:09:05.584Z,41.59
2022-08-16T10:11:53.113Z,41.10
2022-08-16T10:14:33.057Z,41.06
2022-08-16T10:17:06.755Z,40.90
2022-08-16T10:19:35.833Z,40.97
2022-08-16T10:22:05.048Z,40.66
2022-08-16T10:24:34.772Z,40.63
2022-08-16T10:27:20.027Z,40.65
2022-08-16T10:30:00.128Z,40.50
2022-08-16T10:32:32.316Z,40.50
2022-08-16T10:35:01.988Z,40.62
2022-08-16T10:37:32.928Z,40.24
2022-08-16T10:40:06.772Z,39.75
2022-08-16T10:42:55.016Z,39.98
2022-08-16T10:45:27.258Z,39.49
2022-08-16T10:48:02.681Z,39.04
2022-08-16T10:50:33.523Z,38.39
2022-08-16T10:53:07.594Z,38.83
2022-08-16T10:55:40.627Z,39.04
2022-08-16T10:58:16.972Z,39.22
2022-08-16T11:00:48.318Z,38.78
2022-08-16T11:06:09.589Z,38.14
2022-08-16T11:08:45.458Z,38.05
2022-08-16T11:11:19.660Z,37.77
2022-08-16T11:13:59.247Z,37.37
2022-08-16T11:19:18.751Z,37.09
2022-08-16T11:24:42.198Z,37.00
2022-08-16T11:27:19.618Z,36.39
2022-08-16T11:29:48.607Z,36.76
2022-08-16T11:32:20.094Z,36.49
2022-08-16T11:35:10.487Z,36.76
2022-08-16T11:40:32.526Z,36.38
2022-08-16T11:43:04.125Z,36.46
2022-08-16T11:45:34.813Z,36.28
2022-08-16T11:48:06.590Z,35.93
2022-08-16T11:50:35.869Z,35.80
2022-08-16T11:53:08.357Z,35.60
2022-08-16T11:55:39.428Z,35.56
2022-08-16T11:58:14.415Z,35.52
2022-08-16T12:00:51.886Z,35.47
2022-08-16T12:03:34.344Z,35.01
2022-08-16T12:06:10.598Z,34.54
2022-08-16T12:08:42.674Z,34.61
2022-08-16T12:11:12.150Z,33.95
2022-08-16T12:13:41.063Z,34.46
2022-08-16T12:16:11.073Z,34.58
2022-08-16T12:18:41.709Z,34.85
2022-08-16T12:21:10.713Z,34.47
2022-08-16T12:23:39.999Z,34.50
2022-08-16T12:26:10.581Z,34.17
2022-08-16T12:28:54.600Z,34.10
2022-08-16T12:31:26.209Z,33.83
2022-08-16T12:33:57.652Z,33.45
2022-08-16T12:36:30.019Z,32.96
2022-08-16T12:38:59.594Z,32.78
2022-08-16T12:41:28.124Z,32.69
2022-08-16T12:44:01.288Z,32.72
2022-08-16T12:46:31.207Z,32.63
2022-08-16T12:49:01.302Z,32.31
2022-08-16T12:51:58.975Z,32.87
2022-08-16T12:54:22.213Z,33.18
2022-08-16T12:56:50.812Z,33.21
2022-08-16T12:59:20.929Z,32.98
2022-08-16T13:01:58.160Z,32.87
2022-08-16T13:04:31.331Z,32.81
2022-08-16T13:09:48.059Z,32.45
2022-08-16T13:12:21.062Z,31.81
2022-08-16T13:14:49.823Z,32.15
2022-08-16T13:17:29.813Z,32.23
2022-08-16T13:20:07.724Z,32.42
2022-08-16T13:25:19.382Z,32.09
2022-08-16T13:28:02.881Z,32.20
2022-08-16T13:30:36.275Z,32.18
2022-08-16T13:33:12.217Z,32.51
2022-08-16T13:35:45.451Z,32.01
2022-08-16T13:38:21.599Z,32.09
2022-08-16T13:40:55.929Z,32.29
2022-08-16T13:43:27.285Z,32.26
2022-08-16T13:45:56.563Z,32.27
2022-08-16T13:48:26.408Z,32.28
2022-08-16T13:51:17.172Z,32.12
2022-08-16T13:53:49.482Z,32.24
2022-08-16T13:56:25.336Z,32.15
2022-08-16T13:58:55.509Z,31.04
2022-08-16T14:01:25.063Z,30.39
2022-08-16T14:03:54.736Z,30.57
2022-08-16T14:06:28.596Z,30.36
2022-08-16T14:09:06.484Z,30.64
2022-08-16T14:11:36.305Z,30.78
2022-08-16T14:14:05.378Z,30.42
2022-08-16T14:16:35.537Z,30.40
2022-08-16T14:19:04.449Z,30.41
2022-08-16T14:21:35.505Z,30.31
2022-08-16T14:24:12.881Z,30.17
2022-08-16T14:26:52.728Z,30.24
2022-08-16T14:29:21.903Z,30.01
2022-08-16T14:31:54.005Z,30.17
2022-08-16T14:34:25.579Z,30.16
2022-08-16T14:36:55.951Z,30.06
2022-08-16T14:39:24.926Z,30.17
2022-08-16T14:41:55.763Z,30.28
2022-08-16T14:44:26.990Z,30.42
2022-08-16T14:46:56.852Z,30.63
2022-08-16T14:49:25.443Z,30.92
2022-08-16T14:51:55.503Z,30.93
2022-08-16T14:54:28.589Z,31.03
2022-08-16T14:56:59.872Z,31.36
2022-08-16T14:59:28.631Z,31.15
2022-08-16T15:02:00.933Z,31.34
2022-08-16T15:04:32.247Z,31.08
2022-08-16T15:07:21.707Z,31.28
2022-08-16T15:09:59.897Z,31.33
2022-08-16T15:12:33.727Z,31.33
2022-08-16T15:15:12.537Z,31.50
2022-08-16T15:17:53.728Z,31.67
2022-08-16T15:20:26.075Z,31.59
2022-08-16T15:22:56.563Z,31.73
2022-08-16T15:25:29.673Z,31.91
2022-08-16T15:27:58.889Z,31.97
2022-08-16T15:30:56.498Z,32.02
2022-08-16T15:33:20.573Z,32.28
2022-08-16T15:35:52.761Z,32.37
2022-08-16T15:38:57.693Z,32.30
2022-08-16T15:41:38.210Z,32.56
2022-08-16T15:44:10.732Z,32.59
2022-08-16T15:46:54.946Z,32.52
2022-08-16T15:49:34.700Z,32.78
2022-08-16T15:52:10.462Z,32.73
2022-08-16T15:54:52.697Z,32.98
2022-08-16T15:57:23.234Z,32.92
2022-08-16T15:59:52.463Z,33.11
2022-08-16T16:02:27.424Z,32.92
2022-08-16T16:04:56.258Z,32.83
2022-08-16T16:07:25.104Z,33.04
2022-08-16T16:09:54.909Z,32.96
2022-08-16T16:15:24.368Z,32.63
2022-08-16T16:17:53.821Z,32.91
2022-08-16T16:20:27.298Z,32.81
2022-08-16T16:22:57.824Z,32.63
2022-08-16T16:25:29.944Z,32.79
2022-08-16T16:27:59.743Z,32.80
2022-08-16T16:30:37.253Z,33.01
2022-08-16T16:33:21.095Z,32.58
2022-08-16T16:35:55.190Z,32.89
2022-08-16T16:38:31.062Z,32.91
2022-08-16T16:41:04.913Z,32.81
2022-08-16T16:43:40.561Z,32.89
2022-08-16T16:46:23.724Z,32.90
2022-08-16T16:49:00.636Z,32.53
2022-08-16T16:51:32.483Z,32.77
2022-08-16T16:54:12.743Z,33.16
2022-08-16T16:56:45.910Z,32.93
2022-08-16T16:59:17.329Z,33.03
2022-08-16T17:01:59.482Z,33.18
2022-08-16T17:04:38.484Z,33.55
2022-08-16T17:07:10.516Z,33.81
2022-08-16T17:10:11.772Z,33.86
2022-08-16T17:15:38.164Z,33.67
2022-08-16T17:19:15.174Z,33.45
2022-08-16T17:20:55.498Z,33.83
2022-08-16T17:23:57.573Z,33.59
2022-08-16T17:26:12.973Z,33.80
2022-08-16T17:28:58.375Z,33.99
2022-08-16T17:31:38.495Z,33.96
2022-08-16T17:34:29.403Z,33.98
2022-08-16T17:37:04.999Z,33.81
2022-08-16T17:39:54.842Z,34.02
2022-08-16T17:42:25.978Z,34.40
2022-08-16T17:44:55.101Z,34.35
2022-08-16T17:47:25.869Z,34.42
2022-08-16T17:49:55.110Z,34.41
2022-08-16T17:52:24.568Z,34.57
2022-08-16T17:54:53.224Z,34.95
2022-08-16T17:57:21.869Z,34.63
2022-08-16T17:59:50.889Z,34.97
2022-08-16T18:02:43.505Z,34.94
2022-08-16T18:05:15.185Z,35.18
2022-08-16T18:07:44.724Z,35.28
2022-08-16T18:10:14.761Z,35.14
2022-08-16T18:13:02.154Z,35.29
2022-08-16T18:15:31.653Z,35.85
2022-08-16T18:18:02.152Z,35.63
2022-08-16T18:20:48.401Z,36.16
2022-08-16T18:23:20.604Z,35.99
2022-08-16T18:25:53.341Z,35.96
2022-08-16T18:28:22.756Z,36.30
2022-08-16T18:36:21.182Z,36.76
2022-08-16T18:38:51.244Z,36.86
2022-08-16T18:41:21.048Z,36.82
2022-08-16T18:44:22.970Z,37.41
2022-08-16T18:46:40.871Z,37.52
2022-08-16T18:49:09.757Z,37.59
2022-08-16T18:51:43.725Z,37.54
2022-08-16T18:54:14.715Z,37.62
2022-08-16T18:56:56.619Z,37.67
2022-08-16T18:59:28.205Z,37.77
2022-08-16T19:02:03.973Z,38.16
2022-08-16T19:04:47.996Z,38.14
2022-08-16T19:07:30.463Z,38.29
2022-08-16T19:10:02.067Z,38.36
2022-08-16T19:12:38.585Z,38.75
2022-08-16T19:15:15.979Z,38.77
2022-08-16T19:17:45.670Z,38.60
2022-08-16T19:20:18.290Z,38.99
2022-08-16T19:23:05.568Z,38.95
2022-08-16T19:25:46.904Z,39.23
2022-08-16T19:28:51.863Z,39.39
2022-08-16T19:31:15.915Z,39.70
2022-08-16T19:33:54.478Z,39.70
2022-08-16T19:36:31.020Z,39.72
2022-08-16T19:39:05.575Z,39.95
2022-08-16T19:41:37.192Z,40.09
2022-08-16T19:44:07.302Z,40.28
2022-08-16T19:46:37.996Z,40.45
2022-08-16T19:49:08.816Z,40.29
2022-08-16T19:51:39.241Z,40.51
2022-08-16T19:54:11.025Z,40.80
2022-08-16T19:56:41.014Z,40.96
2022-08-16T19:59:19.238Z,41.05
2022-08-16T20:01:50.252Z,41.11
2022-08-16T20:04:18.795Z,41.31
2022-08-16T20:06:47.384Z,41.40
2022-08-16T20:09:17.352Z,41.50
2022-08-16T20:11:46.631Z,41.65
2022-08-16T20:14:24.181Z,41.75
2022-08-16T20:16:55.234Z,41.83
2022-08-16T20:19:25.525Z,41.87
2022-08-16T20:21:56.849Z,41.99
2022-08-16T20:24:34.732Z,42.07
2022-08-16T20:27:06.682Z,42.18
2022-08-16T20:29:36.935Z,42.29
2022-08-16T20:32:09.362Z,42.53
2022-08-16T20:34:39.517Z,42.76
2022-08-16T20:37:12.753Z,42.74
2022-08-16T20:39:46.742Z,42.93
2022-08-16T20:42:19.861Z,43.07
2022-08-16T20:44:50.985Z,43.04
2022-08-16T20:47:21.011Z,43.19
2022-08-16T20:49:57.544Z,43.55
2022-08-16T20:52:27.904Z,43.73
2022-08-16T20:54:59.905Z,43.74
2022-08-16T20:57:30.274Z,43.87
2022-08-16T21:00:00.181Z,44.18
2022-08-16T21:02:30.442Z,44.26
2022-08-16T21:05:00.209Z,44.11
2022-08-16T21:07:30.324Z,44.65
2022-08-16T21:10:01.032Z,44.70
2022-08-16T21:12:34.634Z,44.77
2022-08-16T21:15:08.574Z,45.00
2022-08-16T21:17:37.486Z,45.21
2022-08-16T21:20:10.466Z,45.34
2022-08-16T21:22:39.721Z,45.57
2022-08-16T21:25:13.850Z,45.46
2022-08-16T21:28:36.882Z,45.46
2022-08-16T21:30:34.128Z,45.74
2022-08-16T21:33:04.609Z,45.82
2022-08-16T21:35:33.552Z,45.80
2022-08-16T21:38:29.489Z,46.11
2022-08-16T21:40:52.744Z,46.06
2022-08-16T21:43:23.106Z,46.07
2022-08-16T21:45:55.025Z,46.10
2022-08-16T21:48:33.608Z,45.98
2022-08-16T21:51:04.672Z,45.70
2022-08-16T21:53:33.695Z,45.77
2022-08-16T21:56:04.354Z,45.65
2022-08-16T21:58:33.291Z,45.66
2022-08-16T22:01:02.539Z,45.59
2022-08-16T22:03:33.184Z,45.63
2022-08-16T22:06:13.914Z,45.66
2022-08-16T22:08:50.079Z,45.74
2022-08-16T22:11:22.854Z,46.00
2022-08-16T22:13:58.627Z,46.10
2022-08-16T22:16:29.430Z,46.32
2022-08-16T22:18:58.122Z,46.32
2022-08-16T22:21:26.894Z,46.38
2022-08-16T22:23:57.613Z,46.41
2022-08-16T22:26:31.275Z,46.14
2022-08-16T22:29:01.130Z,46.27
2022-08-16T22:31:29.906Z,46.30
2022-08-16T22:33:58.638Z,46.41
2022-08-16T22:36:29.164Z,46.75
2022-08-16T22:38:59.192Z,46.66
2022-08-16T22:41:31.797Z,46.57
2022-08-16T22:44:02.260Z,46.72
2022-08-16T22:46:31.262Z,46.69
2022-08-16T22:49:00.703Z,46.86
2022-08-16T22:51:30.037Z,46.80
2022-08-16T22:53:58.673Z,46.94
2022-08-16T22:56:28.624Z,47.00
2022-08-16T22:58:57.982Z,46.93
2022-08-16T23:01:27.824Z,47.20
2022-08-16T23:03:57.505Z,47.29
2022-08-16T23:06:26.159Z,47.06
2022-08-16T23:08:54.890Z,47.46
2022-08-16T23:11:31.733Z,47.21
2022-08-16T23:14:00.284Z,47.36
2022-08-16T23:16:33.769Z,47.10
2022-08-16T23:19:03.553Z,47.56
2022-08-16T23:21:32.357Z,47.47
2022-08-16T23:24:01.073Z,47.65
2022-08-16T23:26:46.988Z,47.67
2022-08-16T23:29:23.157Z,47.71
2022-08-16T23:31:54.927Z,47.69
2022-08-16T23:34:23.532Z,47.95
2022-08-16T23:36:52.273Z,48.22
2022-08-16T23:39:20.721Z,47.95
2022-08-16T23:41:51.058Z,48.06
2022-08-16T23:44:55.699Z,48.35
2022-08-16T23:47:08.149Z,48.38
2022-08-16T23:49:56.908Z,48.20
2022-08-16T23:52:39.397Z,48.11
2022-08-16T23:55:14.035Z,48.47
2022-08-16T23:57:47.029Z,48.22
